createdAt,value
2022-10-06T00:00:36.587Z,69
2022-10-06T00:05:38.540Z,70
2022-10-06T00:10:39.841Z,70
2022-10-06T00:15:41.839Z,70
2022-10-06T00:20:43.348Z,70
2022-10-06T00:25:44.861Z,71
2022-10-06T00:30:46.222Z,70
2022-10-06T00:35:47.633Z,70
2022-10-06T00:40:49.765Z,71
2022-10-06T00:45:51.320Z,71
2022-10-06T00:50:52.983Z,71
2022-10-06T00:55:54.198Z,71
2022-10-06T01:00:55.938Z,71
2022-10-06T01:05:58.063Z,71
2022-10-06T01:10:59.859Z,72
2022-10-06T01:16:01.658Z,72
2022-10-06T01:21:02.622Z,72
2022-10-06T01:26:04.569Z,72
2022-10-06T01:31:06.620Z,72
2022-10-06T01:36:08.171Z,72
2022-10-06T01:41:09.644Z,71
2022-10-06T01:46:11.436Z,72
2022-10-06T01:51:13.203Z,73
2022-10-06T01:56:14.934Z,72
2022-10-06T02:01:16.578Z,73
2022-10-06T02:06:17.904Z,73
2022-10-06T02:11:19.999Z,73
2022-10-06T02:16:21.888Z,73
2022-10-06T02:21:23.957Z,74
2022-10-06T02:26:25.220Z,73
2022-10-06T02:31:26.512Z,73
2022-10-06T02:36:28.154Z,74
2022-10-06T02:41:29.731Z,74
2022-10-06T02:46:31.589Z,73
2022-10-06T02:51:33.068Z,74
2022-10-06T02:56:34.887Z,74
2022-10-06T03:01:36.453Z,74
2022-10-06T03:06:38.449Z,75
2022-10-06T03:11:40.204Z,75
2022-10-06T03:16:41.698Z,74
2022-10-06T03:21:43.647Z,75
2022-10-06T03:26:45.214Z,75
2022-10-06T03:31:47.201Z,75
2022-10-06T03:36:48.344Z,75
2022-10-06T03:41:49.906Z,75
2022-10-06T03:46:51.470Z,75
2022-10-06T03:51:53.313Z,75
2022-10-06T03:56:55.220Z,76
2022-10-06T04:01:57.173Z,76
2022-10-06T04:06:59.139Z,75
2022-10-06T04:12:00.404Z,76
2022-10-06T04:17:01.686Z,77
2022-10-06T04:22:02.904Z,76
2022-10-06T04:37:08.163Z,77
2022-10-06T04:57:14.724Z,77
2022-10-06T05:07:17.832Z,78
2022-10-06T05:22:22.982Z,78
2022-10-06T05:27:24.448Z,77
2022-10-06T05:37:28.180Z,79
2022-10-06T05:42:30.087Z,78
2022-10-06T05:47:31.481Z,78
2022-10-06T05:52:33.014Z,78
2022-10-06T05:57:34.568Z,78
2022-10-06T06:02:36.290Z,77
2022-10-06T06:07:37.401Z,77
2022-10-06T06:12:39.021Z,78
2022-10-06T06:17:40.985Z,77
2022-10-06T06:22:42.454Z,77
2022-10-06T06:27:44.080Z,76
2022-10-06T06:32:46.060Z,75
2022-10-06T06:37:47.889Z,74
2022-10-06T06:42:53.000Z,72
2022-10-06T06:47:50.712Z,71
2022-10-06T06:52:52.765Z,71
2022-10-06T06:57:54.845Z,69
2022-10-06T07:02:56.562Z,67
2022-10-06T07:07:58.034Z,66
2022-10-06T07:12:59.198Z,64
2022-10-06T07:18:00.523Z,62
2022-10-06T07:23:01.739Z,59
2022-10-06T07:28:03.865Z,59
2022-10-06T07:33:05.916Z,58
2022-10-06T07:38:07.672Z,57
2022-10-06T07:43:09.614Z,57
2022-10-06T07:48:11.257Z,56
2022-10-06T07:53:12.856Z,56
2022-10-06T07:58:14.733Z,56
2022-10-06T08:03:16.208Z,54
2022-10-06T08:08:17.367Z,54
2022-10-06T08:13:19.077Z,53
2022-10-06T08:18:41.315Z,52
2022-10-06T08:23:22.599Z,51
2022-10-06T08:28:24.122Z,52
2022-10-06T08:33:26.078Z,52
2022-10-06T08:38:27.400Z,50
2022-10-06T08:43:28.813Z,50
2022-10-06T08:48:30.230Z,49
2022-10-06T08:53:32.240Z,48
2022-10-06T08:58:34.798Z,48
2022-10-06T09:03:36.493Z,48
2022-10-06T09:08:38.361Z,46
2022-10-06T09:13:39.578Z,45
2022-10-06T09:58:54.109Z,42
2022-10-06T10:04:15.922Z,43
2022-10-06T10:08:57.874Z,43
2022-10-06T10:13:59.854Z,40
2022-10-06T10:19:01.184Z,37
2022-10-06T10:24:02.673Z,37
2022-10-06T10:29:04.607Z,34
2022-10-06T10:34:12.268Z,35
2022-10-06T10:39:08.088Z,34
2022-10-06T10:44:09.308Z,35
2022-10-06T10:49:10.667Z,36
2022-10-06T10:54:12.037Z,36
2022-10-06T10:59:13.356Z,35
2022-10-06T11:04:14.723Z,35
2022-10-06T11:09:16.099Z,36
2022-10-06T11:14:18.049Z,37
2022-10-06T11:19:20.079Z,38
2022-10-06T11:24:21.543Z,39
2022-10-06T11:29:22.839Z,39
2022-10-06T11:34:24.276Z,40
2022-10-06T11:39:26.264Z,41
2022-10-06T11:44:27.658Z,42
2022-10-06T11:49:28.847Z,42
2022-10-06T11:54:30.376Z,43
2022-10-06T11:59:32.225Z,43
2022-10-06T12:04:33.883Z,43
2022-10-06T12:09:35.145Z,44
2022-10-06T12:19:38.385Z,46
2022-10-06T12:24:39.935Z,47
2022-10-06T12:29:41.782Z,47
2022-10-06T12:34:43.127Z,47
2022-10-06T12:39:44.851Z,47
2022-10-06T12:44:46.310Z,47
2022-10-06T12:49:47.708Z,48
2022-10-06T12:54:49.926Z,48
2022-10-06T12:59:51.708Z,48
2022-10-06T13:04:53.314Z,48
2022-10-06T13:09:54.656Z,48
2022-10-06T13:14:56.651Z,48
2022-10-06T13:19:57.872Z,48
2022-10-06T13:24:59.261Z,48
2022-10-06T13:30:01.550Z,49
2022-10-06T13:35:03.044Z,48
2022-10-06T13:40:12.156Z,48
2022-10-06T13:45:06.080Z,48
2022-10-06T13:50:07.182Z,49
2022-10-06T13:55:08.624Z,49
2022-10-06T14:00:10.644Z,49
2022-10-06T14:05:12.216Z,50
2022-10-06T14:10:14.129Z,51
2022-10-06T14:15:15.755Z,52
2022-10-06T14:20:16.973Z,52
2022-10-06T14:25:18.879Z,52
2022-10-06T14:30:20.275Z,52
2022-10-06T14:35:21.434Z,52
2022-10-06T14:40:23.194Z,53
2022-10-06T14:45:24.495Z,52
2022-10-06T14:50:26.336Z,52
2022-10-06T14:55:34.336Z,52
2022-10-06T15:00:35.929Z,53
2022-10-06T15:05:37.230Z,53
2022-10-06T15:10:39.002Z,53
2022-10-06T15:15:41.124Z,53
2022-10-06T15:20:42.624Z,54
2022-10-06T15:25:44.226Z,54
2022-10-06T15:30:46.245Z,54
2022-10-06T15:35:48.243Z,54
2022-10-06T15:40:50.388Z,55
2022-10-06T15:45:51.689Z,55
2022-10-06T15:50:52.932Z,54
2022-10-06T15:55:54.474Z,54
2022-10-06T16:00:56.344Z,55
2022-10-06T16:05:57.957Z,55
2022-10-06T16:11:00.004Z,56
2022-10-06T16:16:01.356Z,57
2022-10-06T16:21:03.283Z,57
2022-10-06T16:26:05.289Z,57
2022-10-06T16:31:07.333Z,59
2022-10-06T16:36:09.220Z,59
2022-10-06T16:41:10.914Z,59
2022-10-06T16:46:12.959Z,60
2022-10-06T16:51:14.021Z,60
2022-10-06T16:56:15.339Z,60
2022-10-06T17:01:16.765Z,62
2022-10-06T17:06:17.938Z,62
2022-10-06T17:11:19.121Z,62
2022-10-06T17:16:21.393Z,63
2022-10-06T17:21:44.084Z,64
2022-10-06T17:26:24.407Z,63
2022-10-06T17:31:26.408Z,65
2022-10-06T17:36:27.813Z,66
2022-10-06T17:41:29.419Z,65
2022-10-06T17:46:31.152Z,66
2022-10-06T17:51:32.805Z,67
2022-10-06T17:56:34.064Z,67
2022-10-06T18:01:36.117Z,68
2022-10-06T18:06:37.430Z,68
2022-10-06T18:11:38.700Z,68
2022-10-06T18:16:40.889Z,68
2022-10-06T18:21:42.458Z,70
2022-10-06T18:26:43.902Z,71
2022-10-06T18:31:46.018Z,70
2022-10-06T18:36:48.054Z,71
2022-10-06T18:41:50.051Z,72
2022-10-06T18:46:52.206Z,72
2022-10-06T18:51:58.031Z,72
2022-10-06T18:56:55.387Z,73
2022-10-06T19:01:57.434Z,73
2022-10-06T19:06:58.803Z,73
2022-10-06T19:12:00.316Z,74
2022-10-06T19:27:05.761Z,74
2022-10-06T19:37:09.081Z,75
2022-10-06T19:42:10.348Z,75
2022-10-06T19:47:12.551Z,76
2022-10-06T19:52:14.562Z,75
2022-10-06T19:57:15.923Z,76
2022-10-06T20:02:17.846Z,76
2022-10-06T20:07:19.313Z,77
2022-10-06T20:12:24.499Z,78
2022-10-06T20:17:22.520Z,78
2022-10-06T20:22:24.431Z,78
2022-10-06T20:27:25.759Z,78
2022-10-06T20:32:27.063Z,78
2022-10-06T20:37:28.628Z,78
2022-10-06T20:42:30.743Z,78
2022-10-06T20:47:32.078Z,78
2022-10-06T20:52:33.719Z,79
2022-10-06T20:57:35.769Z,79
2022-10-06T21:02:37.471Z,79
2022-10-06T21:07:38.936Z,79
2022-10-06T21:12:40.325Z,79
2022-10-06T21:17:42.217Z,79
2022-10-06T21:22:43.729Z,79
2022-10-06T21:27:45.518Z,80
2022-10-06T21:32:46.594Z,80
2022-10-06T21:37:47.932Z,80
2022-10-06T21:42:50.060Z,81
2022-10-06T21:47:51.915Z,81
2022-10-06T21:52:53.806Z,81
2022-10-06T21:57:55.719Z,81
2022-10-06T22:13:00.057Z,82
2022-10-06T22:18:01.573Z,81
2022-10-06T22:23:04.975Z,81
2022-10-06T22:28:05.247Z,81
2022-10-06T22:33:07.020Z,81
2022-10-06T22:38:08.527Z,81
2022-10-06T22:43:10.519Z,80
2022-10-06T22:48:11.750Z,80
2022-10-06T22:53:13.653Z,80
2022-10-06T22:58:15.343Z,80
2022-10-06T23:03:17.196Z,80
2022-10-06T23:08:19.057Z,80
2022-10-06T23:13:20.991Z,80
2022-10-06T23:18:22.645Z,80
2022-10-06T23:23:24.324Z,80
2022-10-06T23:28:25.753Z,81
2022-10-06T23:33:26.973Z,81
2022-10-06T23:38:28.356Z,80
2022-10-06T23:43:29.997Z,80
2022-10-06T23:48:31.538Z,80
2022-10-06T23:53:33.290Z,80
2022-10-06T23:58:35.133Z,80
